sensor_id;sensor_type;location;lat;lon;timestamp;P1;durP1;ratioP1;P2;durP2;ratioP2
44476;SDS011;30180;44.788;10.366;2023-03-23T00:01:48;4.05;;;2.00;;
44476;SDS011;30180;44.788;10.366;2023-03-23T00:04:15;5.18;;;2.08;;
44476;SDS011;30180;44.788;10.366;2023-03-23T00:06:43;4.38;;;2.08;;
44476;SDS011;30180;44.788;10.366;2023-03-23T00:09:11;3.90;;;2.20;;
44476;SDS011;30180;44.788;10.366;2023-03-23T00:11:40;4.07;;;2.17;;
44476;SDS011;30180;44.788;10.366;2023-03-23T00:14:08;3.47;;;2.10;;
44476;SDS011;30180;44.788;10.366;2023-03-23T00:16:39;3.97;;;1.77;;
44476;SDS011;30180;44.788;10.366;2023-03-23T00:19:08;3.80;;;2.03;;
44476;SDS011;30180;44.788;10.366;2023-03-23T00:21:38;4.18;;;2.15;;
44476;SDS011;30180;44.788;10.366;2023-03-23T00:24:07;3.03;;;1.80;;
44476;SDS011;30180;44.788;10.366;2023-03-23T00:26:36;3.47;;;1.83;;
44476;SDS011;30180;44.788;10.366;2023-03-23T00:29:05;3.50;;;2.00;;
44476;SDS011;30180;44.788;10.366;2023-03-23T00:31:35;3.10;;;1.92;;
44476;SDS011;30180;44.788;10.366;2023-03-23T00:34:04;3.20;;;1.85;;
44476;SDS011;30180;44.788;10.366;2023-03-23T00:36:31;4.45;;;2.03;;
44476;SDS011;30180;44.788;10.366;2023-03-23T00:39:00;3.15;;;1.77;;
44476;SDS011;30180;44.788;10.366;2023-03-23T00:41:28;2.72;;;1.80;;
44476;SDS011;30180;44.788;10.366;2023-03-23T00:43:56;2.90;;;2.00;;
44476;SDS011;30180;44.788;10.366;2023-03-23T00:46:25;2.88;;;1.75;;
44476;SDS011;30180;44.788;10.366;2023-03-23T00:48:53;3.78;;;2.03;;
44476;SDS011;30180;44.788;10.366;2023-03-23T00:51:23;2.83;;;1.58;;
44476;SDS011;30180;44.788;10.366;2023-03-23T00:53:50;3.38;;;1.90;;
44476;SDS011;30180;44.788;10.366;2023-03-23T00:56:17;2.33;;;1.75;;
44476;SDS011;30180;44.788;10.366;2023-03-23T00:58:44;3.60;;;1.88;;
44476;SDS011;30180;44.788;10.366;2023-03-23T01:01:12;2.58;;;1.80;;
44476;SDS011;30180;44.788;10.366;2023-03-23T01:03:39;4.10;;;2.05;;
44476;SDS011;30180;44.788;10.366;2023-03-23T01:06:07;2.33;;;1.60;;
44476;SDS011;30180;44.788;10.366;2023-03-23T01:08:39;2.78;;;1.77;;
44476;SDS011;30180;44.788;10.366;2023-03-23T01:11:10;2.85;;;1.70;;
44476;SDS011;30180;44.788;10.366;2023-03-23T01:13:39;3.38;;;1.90;;
44476;SDS011;30180;44.788;10.366;2023-03-23T01:16:06;3.03;;;1.73;;
44476;SDS011;30180;44.788;10.366;2023-03-23T01:18:34;2.95;;;1.90;;
44476;SDS011;30180;44.788;10.366;2023-03-23T01:21:03;3.03;;;1.80;;
44476;SDS011;30180;44.788;10.366;2023-03-23T01:23:31;2.92;;;1.80;;
44476;SDS011;30180;44.788;10.366;2023-03-23T01:26:04;3.25;;;2.03;;
44476;SDS011;30180;44.788;10.366;2023-03-23T01:28:32;2.65;;;1.63;;
44476;SDS011;30180;44.788;10.366;2023-03-23T01:31:00;4.22;;;2.03;;
44476;SDS011;30180;44.788;10.366;2023-03-23T01:33:29;2.97;;;2.03;;
44476;SDS011;30180;44.788;10.366;2023-03-23T01:35:56;3.75;;;2.08;;
44476;SDS011;30180;44.788;10.366;2023-03-23T01:38:24;3.58;;;1.90;;
44476;SDS011;30180;44.788;10.366;2023-03-23T01:40:51;2.72;;;1.67;;
44476;SDS011;30180;44.788;10.366;2023-03-23T01:43:19;2.58;;;1.70;;
44476;SDS011;30180;44.788;10.366;2023-03-23T01:45:46;3.05;;;1.70;;
44476;SDS011;30180;44.788;10.366;2023-03-23T01:48:15;2.35;;;1.80;;
44476;SDS011;30180;44.788;10.366;2023-03-23T01:50:48;2.92;;;1.77;;
44476;SDS011;30180;44.788;10.366;2023-03-23T01:53:20;3.45;;;1.90;;
44476;SDS011;30180;44.788;10.366;2023-03-23T01:55:51;2.95;;;1.83;;
44476;SDS011;30180;44.788;10.366;2023-03-23T01:58:23;2.28;;;1.60;;
44476;SDS011;30180;44.788;10.366;2023-03-23T02:00:53;2.90;;;1.80;;
44476;SDS011;30180;44.788;10.366;2023-03-23T02:03:24;2.50;;;1.48;;
44476;SDS011;30180;44.788;10.366;2023-03-23T02:05:51;3.13;;;1.60;;
44476;SDS011;30180;44.788;10.366;2023-03-23T02:08:18;3.45;;;1.90;;
44476;SDS011;30180;44.788;10.366;2023-03-23T02:10:46;3.40;;;1.90;;
44476;SDS011;30180;44.788;10.366;2023-03-23T02:13:13;3.97;;;1.95;;
44476;SDS011;30180;44.788;10.366;2023-03-23T02:15:54;2.72;;;1.70;;
44476;SDS011;30180;44.788;10.366;2023-03-23T02:18:32;3.10;;;2.00;;
44476;SDS011;30180;44.788;10.366;2023-03-23T02:21:20;2.25;;;1.63;;
44476;SDS011;30180;44.788;10.366;2023-03-23T02:27:10;2.60;;;1.70;;
44476;SDS011;30180;44.788;10.366;2023-03-23T02:29:45;2.55;;;1.65;;
44476;SDS011;30180;44.788;10.366;2023-03-23T02:32:32;2.58;;;1.70;;
44476;SDS011;30180;44.788;10.366;2023-03-23T02:35:21;2.38;;;1.73;;
44476;SDS011;30180;44.788;10.366;2023-03-23T02:37:51;2.50;;;1.70;;
44476;SDS011;30180;44.788;10.366;2023-03-23T02:40:23;3.85;;;1.77;;
44476;SDS011;30180;44.788;10.366;2023-03-23T02:42:55;3.28;;;1.67;;
44476;SDS011;30180;44.788;10.366;2023-03-23T02:45:25;3.65;;;1.92;;
44476;SDS011;30180;44.788;10.366;2023-03-23T02:47:55;3.65;;;1.88;;
44476;SDS011;30180;44.788;10.366;2023-03-23T02:50:25;1.80;;;1.40;;
44476;SDS011;30180;44.788;10.366;2023-03-23T02:52:56;3.38;;;1.92;;
44476;SDS011;30180;44.788;10.366;2023-03-23T02:55:25;2.10;;;1.60;;
44476;SDS011;30180;44.788;10.366;2023-03-23T02:57:53;2.50;;;1.48;;
44476;SDS011;30180;44.788;10.366;2023-03-23T03:00:21;2.53;;;1.88;;
44476;SDS011;30180;44.788;10.366;2023-03-23T03:02:48;2.05;;;1.55;;
44476;SDS011;30180;44.788;10.366;2023-03-23T03:05:22;2.78;;;1.63;;
44476;SDS011;30180;44.788;10.366;2023-03-23T03:07:59;2.72;;;1.70;;
44476;SDS011;30180;44.788;10.366;2023-03-23T03:10:34;2.42;;;1.45;;
44476;SDS011;30180;44.788;10.366;2023-03-23T03:13:10;3.05;;;1.65;;
44476;SDS011;30180;44.788;10.366;2023-03-23T03:15:44;3.80;;;1.67;;
44476;SDS011;30180;44.788;10.366;2023-03-23T03:18:16;1.95;;;1.42;;
44476;SDS011;30180;44.788;10.366;2023-03-23T03:20:49;2.55;;;1.50;;
44476;SDS011;30180;44.788;10.366;2023-03-23T03:23:20;2.75;;;1.75;;
44476;SDS011;30180;44.788;10.366;2023-03-23T03:25:50;2.95;;;1.70;;
44476;SDS011;30180;44.788;10.366;2023-03-23T03:28:19;2.33;;;1.50;;
44476;SDS011;30180;44.788;10.366;2023-03-23T03:30:47;2.97;;;1.80;;
44476;SDS011;30180;44.788;10.366;2023-03-23T03:33:19;3.45;;;1.67;;
44476;SDS011;30180;44.788;10.366;2023-03-23T03:35:52;2.58;;;1.60;;
44476;SDS011;30180;44.788;10.366;2023-03-23T03:38:21;2.40;;;1.50;;
44476;SDS011;30180;44.788;10.366;2023-03-23T03:40:49;4.00;;;1.70;;
44476;SDS011;30180;44.788;10.366;2023-03-23T03:43:16;1.80;;;1.42;;
44476;SDS011;30180;44.788;10.366;2023-03-23T03:45:44;3.65;;;1.70;;
44476;SDS011;30180;44.788;10.366;2023-03-23T03:48:11;2.15;;;1.58;;
44476;SDS011;30180;44.788;10.366;2023-03-23T03:50:38;2.60;;;1.60;;
44476;SDS011;30180;44.788;10.366;2023-03-23T03:53:07;2.75;;;1.50;;
44476;SDS011;30180;44.788;10.366;2023-03-23T03:55:34;3.10;;;1.65;;
44476;SDS011;30180;44.788;10.366;2023-03-23T03:58:03;2.17;;;1.60;;
44476;SDS011;30180;44.788;10.366;2023-03-23T04:00:32;3.25;;;1.60;;
44476;SDS011;30180;44.788;10.366;2023-03-23T04:03:00;2.22;;;1.30;;
44476;SDS011;30180;44.788;10.366;2023-03-23T04:05:27;2.17;;;1.48;;
44476;SDS011;30180;44.788;10.366;2023-03-23T04:07:55;2.75;;;2.05;;
44476;SDS011;30180;44.788;10.366;2023-03-23T04:10:28;3.05;;;1.80;;
44476;SDS011;30180;44.788;10.366;2023-03-23T04:12:56;2.78;;;1.67;;
44476;SDS011;30180;44.788;10.366;2023-03-23T04:15:24;2.58;;;1.65;;
44476;SDS011;30180;44.788;10.366;2023-03-23T04:17:51;1.92;;;1.40;;
44476;SDS011;30180;44.788;10.366;2023-03-23T04:20:19;2.63;;;1.80;;
44476;SDS011;30180;44.788;10.366;2023-03-23T04:22:46;2.75;;;1.70;;
44476;SDS011;30180;44.788;10.366;2023-03-23T04:25:15;2.20;;;1.38;;
44476;SDS011;30180;44.788;10.366;2023-03-23T04:27:47;3.25;;;1.83;;
44476;SDS011;30180;44.788;10.366;2023-03-23T04:30:17;2.00;;;1.48;;
44476;SDS011;30180;44.788;10.366;2023-03-23T04:32:45;2.53;;;1.70;;
44476;SDS011;30180;44.788;10.366;2023-03-23T04:35:15;2.87;;;1.53;;
44476;SDS011;30180;44.788;10.366;2023-03-23T04:37:44;2.25;;;1.63;;
44476;SDS011;30180;44.788;10.366;2023-03-23T04:40:11;2.20;;;1.45;;
44476;SDS011;30180;44.788;10.366;2023-03-23T04:42:40;2.85;;;1.65;;
44476;SDS011;30180;44.788;10.366;2023-03-23T04:45:12;2.60;;;1.70;;
44476;SDS011;30180;44.788;10.366;2023-03-23T04:47:41;4.25;;;1.85;;
44476;SDS011;30180;44.788;10.366;2023-03-23T04:50:18;2.70;;;1.35;;
44476;SDS011;30180;44.788;10.366;2023-03-23T04:52:46;3.08;;;1.70;;
44476;SDS011;30180;44.788;10.366;2023-03-23T04:55:16;2.53;;;1.73;;
44476;SDS011;30180;44.788;10.366;2023-03-23T04:57:45;3.80;;;1.63;;
44476;SDS011;30180;44.788;10.366;2023-03-23T05:00:15;2.85;;;1.63;;
44476;SDS011;30180;44.788;10.366;2023-03-23T05:02:43;2.67;;;1.58;;
44476;SDS011;30180;44.788;10.366;2023-03-23T05:05:12;2.13;;;1.50;;
44476;SDS011;30180;44.788;10.366;2023-03-23T05:07:41;2.85;;;1.50;;
44476;SDS011;30180;44.788;10.366;2023-03-23T05:10:09;2.20;;;1.40;;
44476;SDS011;30180;44.788;10.366;2023-03-23T05:12:37;2.30;;;1.48;;
44476;SDS011;30180;44.788;10.366;2023-03-23T05:15:06;1.83;;;1.48;;
44476;SDS011;30180;44.788;10.366;2023-03-23T05:17:35;2.22;;;1.60;;
44476;SDS011;30180;44.788;10.366;2023-03-23T05:20:03;2.90;;;1.60;;
44476;SDS011;30180;44.788;10.366;2023-03-23T05:22:34;1.58;;;1.25;;
44476;SDS011;30180;44.788;10.366;2023-03-23T05:25:01;3.03;;;1.70;;
44476;SDS011;30180;44.788;10.366;2023-03-23T05:27:30;3.33;;;1.67;;
44476;SDS011;30180;44.788;10.366;2023-03-23T05:29:57;2.25;;;1.58;;
44476;SDS011;30180;44.788;10.366;2023-03-23T05:32:26;1.83;;;1.50;;
44476;SDS011;30180;44.788;10.366;2023-03-23T05:35:00;2.80;;;1.50;;
44476;SDS011;30180;44.788;10.366;2023-03-23T05:37:28;2.38;;;1.40;;
44476;SDS011;30180;44.788;10.366;2023-03-23T05:39:57;2.53;;;1.65;;
44476;SDS011;30180;44.788;10.366;2023-03-23T05:42:31;3.35;;;1.40;;
44476;SDS011;30180;44.788;10.366;2023-03-23T05:44:59;2.97;;;1.70;;
44476;SDS011;30180;44.788;10.366;2023-03-23T05:47:26;2.17;;;1.70;;
44476;SDS011;30180;44.788;10.366;2023-03-23T05:49:54;2.47;;;1.60;;
44476;SDS011;30180;44.788;10.366;2023-03-23T05:52:22;3.08;;;1.83;;
44476;SDS011;30180;44.788;10.366;2023-03-23T05:54:50;2.60;;;1.42;;
44476;SDS011;30180;44.788;10.366;2023-03-23T05:57:17;2.58;;;1.40;;
44476;SDS011;30180;44.788;10.366;2023-03-23T05:59:47;2.78;;;1.70;;
44476;SDS011;30180;44.788;10.366;2023-03-23T06:02:14;2.88;;;1.60;;
44476;SDS011;30180;44.788;10.366;2023-03-23T06:04:41;2.58;;;1.42;;
44476;SDS011;30180;44.788;10.366;2023-03-23T06:07:08;3.25;;;1.67;;
44476;SDS011;30180;44.788;10.366;2023-03-23T06:09:40;2.47;;;1.47;;
44476;SDS011;30180;44.788;10.366;2023-03-23T06:12:07;2.72;;;1.30;;
44476;SDS011;30180;44.788;10.366;2023-03-23T06:14:36;1.95;;;1.38;;
44476;SDS011;30180;44.788;10.366;2023-03-23T06:17:03;2.38;;;1.40;;
44476;SDS011;30180;44.788;10.366;2023-03-23T06:19:31;2.17;;;1.52;;
44476;SDS011;30180;44.788;10.366;2023-03-23T06:21:59;2.83;;;1.40;;
44476;SDS011;30180;44.788;10.366;2023-03-23T06:24:27;2.72;;;1.50;;
44476;SDS011;30180;44.788;10.366;2023-03-23T06:26:55;2.30;;;1.38;;
44476;SDS011;30180;44.788;10.366;2023-03-23T06:29:22;3.42;;;1.50;;
44476;SDS011;30180;44.788;10.366;2023-03-23T06:31:51;5.82;;;1.70;;
44476;SDS011;30180;44.788;10.366;2023-03-23T06:34:21;6.72;;;1.92;;
44476;SDS011;30180;44.788;10.366;2023-03-23T06:36:48;7.75;;;1.70;;
44476;SDS011;30180;44.788;10.366;2023-03-23T06:39:16;6.85;;;1.80;;
44476;SDS011;30180;44.788;10.366;2023-03-23T06:41:43;5.03;;;1.45;;
44476;SDS011;30180;44.788;10.366;2023-03-23T06:44:12;6.68;;;1.70;;
44476;SDS011;30180;44.788;10.366;2023-03-23T06:46:39;5.45;;;1.98;;
44476;SDS011;30180;44.788;10.366;2023-03-23T06:49:07;6.80;;;1.95;;
44476;SDS011;30180;44.788;10.366;2023-03-23T06:51:35;6.53;;;1.85;;
44476;SDS011;30180;44.788;10.366;2023-03-23T06:54:02;6.05;;;1.90;;
44476;SDS011;30180;44.788;10.366;2023-03-23T06:56:30;4.60;;;1.80;;
44476;SDS011;30180;44.788;10.366;2023-03-23T06:58:57;4.43;;;1.65;;
44476;SDS011;30180;44.788;10.366;2023-03-23T07:01:26;13.43;;;1.88;;
44476;SDS011;30180;44.788;10.366;2023-03-23T07:03:53;7.45;;;1.63;;
44476;SDS011;30180;44.788;10.366;2023-03-23T07:06:21;5.57;;;1.63;;
44476;SDS011;30180;44.788;10.366;2023-03-23T07:08:50;9.60;;;2.30;;
44476;SDS011;30180;44.788;10.366;2023-03-23T07:11:17;5.35;;;1.83;;
44476;SDS011;30180;44.788;10.366;2023-03-23T07:13:44;4.05;;;1.58;;
44476;SDS011;30180;44.788;10.366;2023-03-23T07:16:11;8.35;;;1.90;;
44476;SDS011;30180;44.788;10.366;2023-03-23T07:18:40;5.07;;;1.85;;
44476;SDS011;30180;44.788;10.366;2023-03-23T07:21:07;4.85;;;1.75;;
44476;SDS011;30180;44.788;10.366;2023-03-23T07:23:35;7.10;;;2.17;;
44476;SDS011;30180;44.788;10.366;2023-03-23T07:26:02;4.43;;;1.70;;
44476;SDS011;30180;44.788;10.366;2023-03-23T07:28:30;5.43;;;1.38;;
44476;SDS011;30180;44.788;10.366;2023-03-23T07:30:57;5.07;;;1.58;;
44476;SDS011;30180;44.788;10.366;2023-03-23T07:33:24;3.50;;;1.48;;
44476;SDS011;30180;44.788;10.366;2023-03-23T07:35:53;9.13;;;1.80;;
44476;SDS011;30180;44.788;10.366;2023-03-23T07:38:21;6.50;;;1.83;;
44476;SDS011;30180;44.788;10.366;2023-03-23T07:40:50;5.30;;;1.60;;
44476;SDS011;30180;44.788;10.366;2023-03-23T07:43:17;2.50;;;1.33;;
44476;SDS011;30180;44.788;10.366;2023-03-23T07:45:45;3.75;;;1.48;;
44476;SDS011;30180;44.788;10.366;2023-03-23T07:48:12;2.60;;;1.50;;
44476;SDS011;30180;44.788;10.366;2023-03-23T07:50:39;9.13;;;1.80;;
44476;SDS011;30180;44.788;10.366;2023-03-23T07:53:09;4.78;;;2.00;;
44476;SDS011;30180;44.788;10.366;2023-03-23T07:55:36;4.25;;;1.90;;
44476;SDS011;30180;44.788;10.366;2023-03-23T07:58:04;5.80;;;1.58;;
44476;SDS011;30180;44.788;10.366;2023-03-23T08:00:32;3.97;;;1.90;;
44476;SDS011;30180;44.788;10.366;2023-03-23T08:03:00;3.88;;;1.70;;
44476;SDS011;30180;44.788;10.366;2023-03-23T08:05:27;2.38;;;1.40;;
44476;SDS011;30180;44.788;10.366;2023-03-23T08:07:55;5.53;;;1.70;;
44476;SDS011;30180;44.788;10.366;2023-03-23T08:10:23;3.65;;;1.50;;
44476;SDS011;30180;44.788;10.366;2023-03-23T08:12:52;2.97;;;1.50;;
44476;SDS011;30180;44.788;10.366;2023-03-23T08:15:20;16.17;;;2.45;;
44476;SDS011;30180;44.788;10.366;2023-03-23T08:17:48;4.45;;;1.73;;
44476;SDS011;30180;44.788;10.366;2023-03-23T08:20:16;3.33;;;1.63;;
44476;SDS011;30180;44.788;10.366;2023-03-23T08:22:51;3.97;;;1.50;;
44476;SDS011;30180;44.788;10.366;2023-03-23T08:25:20;3.90;;;1.60;;
44476;SDS011;30180;44.788;10.366;2023-03-23T08:27:50;7.40;;;1.83;;
44476;SDS011;30180;44.788;10.366;2023-03-23T08:30:18;3.03;;;1.40;;
44476;SDS011;30180;44.788;10.366;2023-03-23T08:32:47;4.97;;;1.50;;
44476;SDS011;30180;44.788;10.366;2023-03-23T08:35:16;2.17;;;1.42;;
44476;SDS011;30180;44.788;10.366;2023-03-23T08:37:44;3.55;;;1.52;;
44476;SDS011;30180;44.788;10.366;2023-03-23T08:40:16;5.18;;;1.48;;
44476;SDS011;30180;44.788;10.366;2023-03-23T08:42:45;4.63;;;1.40;;
44476;SDS011;30180;44.788;10.366;2023-03-23T08:45:16;6.88;;;2.00;;
44476;SDS011;30180;44.788;10.366;2023-03-23T08:47:45;4.72;;;2.40;;
44476;SDS011;30180;44.788;10.366;2023-03-23T08:50:15;13.98;;;1.85;;
44476;SDS011;30180;44.788;10.366;2023-03-23T08:52:43;6.90;;;1.73;;
44476;SDS011;30180;44.788;10.366;2023-03-23T08:55:10;5.47;;;1.80;;
44476;SDS011;30180;44.788;10.366;2023-03-23T08:57:37;3.95;;;1.67;;
44476;SDS011;30180;44.788;10.366;2023-03-23T09:00:06;8.52;;;2.08;;
44476;SDS011;30180;44.788;10.366;2023-03-23T09:02:41;12.07;;;2.58;;
44476;SDS011;30180;44.788;10.366;2023-03-23T09:05:09;8.95;;;2.10;;
44476;SDS011;30180;44.788;10.366;2023-03-23T09:07:37;4.43;;;1.60;;
44476;SDS011;30180;44.788;10.366;2023-03-23T09:10:07;5.93;;;1.65;;
44476;SDS011;30180;44.788;10.366;2023-03-23T09:12:35;6.55;;;2.08;;
44476;SDS011;30180;44.788;10.366;2023-03-23T09:15:03;3.95;;;2.10;;
44476;SDS011;30180;44.788;10.366;2023-03-23T09:17:34;8.80;;;2.08;;
44476;SDS011;30180;44.788;10.366;2023-03-23T09:20:05;4.40;;;1.50;;
44476;SDS011;30180;44.788;10.366;2023-03-23T09:22:37;6.32;;;2.00;;
44476;SDS011;30180;44.788;10.366;2023-03-23T09:25:05;6.40;;;2.00;;
44476;SDS011;30180;44.788;10.366;2023-03-23T09:27:34;3.45;;;1.60;;
44476;SDS011;30180;44.788;10.366;2023-03-23T09:30:04;5.70;;;2.00;;
44476;SDS011;30180;44.788;10.366;2023-03-23T09:32:33;6.53;;;1.80;;
44476;SDS011;30180;44.788;10.366;2023-03-23T09:35:01;6.88;;;1.70;;
44476;SDS011;30180;44.788;10.366;2023-03-23T09:37:34;9.75;;;1.90;;
44476;SDS011;30180;44.788;10.366;2023-03-23T09:40:01;5.45;;;2.00;;
44476;SDS011;30180;44.788;10.366;2023-03-23T09:42:33;3.88;;;1.52;;
44476;SDS011;30180;44.788;10.366;2023-03-23T09:45:12;5.07;;;1.88;;
44476;SDS011;30180;44.788;10.366;2023-03-23T09:48:00;4.20;;;1.70;;
44476;SDS011;30180;44.788;10.366;2023-03-23T09:50:40;4.20;;;1.80;;
44476;SDS011;30180;44.788;10.366;2023-03-23T09:53:10;4.38;;;1.55;;
44476;SDS011;30180;44.788;10.366;2023-03-23T09:55:41;22.88;;;2.05;;
44476;SDS011;30180;44.788;10.366;2023-03-23T09:58:12;6.22;;;1.70;;
44476;SDS011;30180;44.788;10.366;2023-03-23T10:00:44;4.75;;;2.03;;
44476;SDS011;30180;44.788;10.366;2023-03-23T10:03:24;4.13;;;1.70;;
44476;SDS011;30180;44.788;10.366;2023-03-23T10:05:57;4.28;;;1.88;;
44476;SDS011;30180;44.788;10.366;2023-03-23T10:08:25;5.00;;;1.90;;
44476;SDS011;30180;44.788;10.366;2023-03-23T10:10:58;4.85;;;2.10;;
44476;SDS011;30180;44.788;10.366;2023-03-23T10:13:44;4.38;;;1.60;;
44476;SDS011;30180;44.788;10.366;2023-03-23T10:16:26;6.85;;;1.60;;
44476;SDS011;30180;44.788;10.366;2023-03-23T10:18:58;4.30;;;1.67;;
44476;SDS011;30180;44.788;10.366;2023-03-23T10:21:32;3.58;;;1.50;;
44476;SDS011;30180;44.788;10.366;2023-03-23T10:24:02;3.53;;;1.63;;
44476;SDS011;30180;44.788;10.366;2023-03-23T10:26:33;3.83;;;1.52;;
44476;SDS011;30180;44.788;10.366;2023-03-23T10:29:14;5.28;;;1.67;;
44476;SDS011;30180;44.788;10.366;2023-03-23T10:31:46;3.83;;;2.03;;
44476;SDS011;30180;44.788;10.366;2023-03-23T10:34:17;5.47;;;1.70;;
44476;SDS011;30180;44.788;10.366;2023-03-23T10:36:54;5.43;;;2.03;;
44476;SDS011;30180;44.788;10.366;2023-03-23T10:39:26;6.00;;;2.20;;
44476;SDS011;30180;44.788;10.366;2023-03-23T10:41:56;6.18;;;1.80;;
44476;SDS011;30180;44.788;10.366;2023-03-23T10:44:32;10.68;;;2.10;;
44476;SDS011;30180;44.788;10.366;2023-03-23T10:47:00;7.63;;;1.90;;
44476;SDS011;30180;44.788;10.366;2023-03-23T10:49:31;4.07;;;1.88;;
44476;SDS011;30180;44.788;10.366;2023-03-23T10:52:13;8.98;;;2.20;;
44476;SDS011;30180;44.788;10.366;2023-03-23T10:55:00;6.10;;;2.03;;
44476;SDS011;30180;44.788;10.366;2023-03-23T10:57:31;5.35;;;2.10;;
44476;SDS011;30180;44.788;10.366;2023-03-23T11:00:00;6.07;;;1.98;;
44476;SDS011;30180;44.788;10.366;2023-03-23T11:02:31;5.47;;;2.30;;
44476;SDS011;30180;44.788;10.366;2023-03-23T11:05:03;6.00;;;2.30;;
44476;SDS011;30180;44.788;10.366;2023-03-23T11:07:35;6.30;;;1.90;;
44476;SDS011;30180;44.788;10.366;2023-03-23T11:10:07;16.88;;;2.80;;
44476;SDS011;30180;44.788;10.366;2023-03-23T11:12:44;4.78;;;2.30;;
44476;SDS011;30180;44.788;10.366;2023-03-23T11:15:29;5.85;;;1.70;;
44476;SDS011;30180;44.788;10.366;2023-03-23T11:17:58;5.45;;;1.90;;
44476;SDS011;30180;44.788;10.366;2023-03-23T11:20:28;4.53;;;1.70;;
44476;SDS011;30180;44.788;10.366;2023-03-23T11:23:02;5.65;;;1.90;;
44476;SDS011;30180;44.788;10.366;2023-03-23T11:25:50;7.35;;;1.60;;
44476;SDS011;30180;44.788;10.366;2023-03-23T11:28:19;9.93;;;2.00;;
44476;SDS011;30180;44.788;10.366;2023-03-23T11:30:47;9.88;;;2.22;;
44476;SDS011;30180;44.788;10.366;2023-03-23T11:33:15;7.00;;;2.08;;
44476;SDS011;30180;44.788;10.366;2023-03-23T11:35:43;6.93;;;2.13;;
44476;SDS011;30180;44.788;10.366;2023-03-23T11:38:15;4.88;;;1.92;;
44476;SDS011;30180;44.788;10.366;2023-03-23T11:40:47;6.60;;;2.08;;
44476;SDS011;30180;44.788;10.366;2023-03-23T11:43:18;6.78;;;1.85;;
44476;SDS011;30180;44.788;10.366;2023-03-23T11:45:47;10.43;;;1.92;;
44476;SDS011;30180;44.788;10.366;2023-03-23T11:48:21;6.55;;;2.25;;
44476;SDS011;30180;44.788;10.366;2023-03-23T11:50:54;6.55;;;1.52;;
44476;SDS011;30180;44.788;10.366;2023-03-23T11:53:30;4.03;;;1.75;;
44476;SDS011;30180;44.788;10.366;2023-03-23T11:56:06;4.35;;;1.90;;
44476;SDS011;30180;44.788;10.366;2023-03-23T11:58:38;5.15;;;1.83;;
44476;SDS011;30180;44.788;10.366;2023-03-23T12:01:11;5.47;;;1.85;;
44476;SDS011;30180;44.788;10.366;2023-03-23T12:03:56;5.43;;;1.77;;
44476;SDS011;30180;44.788;10.366;2023-03-23T12:06:38;5.63;;;1.80;;
44476;SDS011;30180;44.788;10.366;2023-03-23T12:09:17;5.60;;;1.50;;
44476;SDS011;30180;44.788;10.366;2023-03-23T12:11:55;4.03;;;1.88;;
44476;SDS011;30180;44.788;10.366;2023-03-23T12:14:33;5.90;;;1.67;;
44476;SDS011;30180;44.788;10.366;2023-03-23T12:17:13;4.07;;;1.58;;
44476;SDS011;30180;44.788;10.366;2023-03-23T12:19:50;5.15;;;1.98;;
44476;SDS011;30180;44.788;10.366;2023-03-23T12:22:29;8.07;;;2.08;;
44476;SDS011;30180;44.788;10.366;2023-03-23T12:25:12;5.15;;;1.83;;
44476;SDS011;30180;44.788;10.366;2023-03-23T12:27:58;4.78;;;1.70;;
44476;SDS011;30180;44.788;10.366;2023-03-23T12:30:33;4.85;;;1.80;;
44476;SDS011;30180;44.788;10.366;2023-03-23T12:33:09;4.70;;;1.80;;
44476;SDS011;30180;44.788;10.366;2023-03-23T12:35:52;7.97;;;1.83;;
44476;SDS011;30180;44.788;10.366;2023-03-23T12:38:32;3.42;;;1.70;;
44476;SDS011;30180;44.788;10.366;2023-03-23T12:41:15;8.68;;;2.00;;
44476;SDS011;30180;44.788;10.366;2023-03-23T12:43:47;6.82;;;1.73;;
44476;SDS011;30180;44.788;10.366;2023-03-23T12:46:21;4.03;;;1.52;;
44476;SDS011;30180;44.788;10.366;2023-03-23T12:49:02;5.07;;;1.65;;
44476;SDS011;30180;44.788;10.366;2023-03-23T12:51:35;4.43;;;1.60;;
44476;SDS011;30180;44.788;10.366;2023-03-23T12:54:09;11.77;;;2.13;;
44476;SDS011;30180;44.788;10.366;2023-03-23T12:56:45;4.28;;;1.75;;
44476;SDS011;30180;44.788;10.366;2023-03-23T12:59:19;6.70;;;1.90;;
44476;SDS011;30180;44.788;10.366;2023-03-23T13:01:54;8.38;;;2.20;;
44476;SDS011;30180;44.788;10.366;2023-03-23T13:04:27;7.43;;;2.38;;
44476;SDS011;30180;44.788;10.366;2023-03-23T13:06:59;14.10;;;2.08;;
44476;SDS011;30180;44.788;10.366;2023-03-23T13:09:32;7.95;;;2.10;;
44476;SDS011;30180;44.788;10.366;2023-03-23T13:12:14;5.68;;;2.10;;
44476;SDS011;30180;44.788;10.366;2023-03-23T13:14:45;10.25;;;1.77;;
44476;SDS011;30180;44.788;10.366;2023-03-23T13:17:22;7.00;;;1.52;;
44476;SDS011;30180;44.788;10.366;2023-03-23T13:20:01;7.97;;;2.08;;
44476;SDS011;30180;44.788;10.366;2023-03-23T13:22:59;6.55;;;2.20;;
44476;SDS011;30180;44.788;10.366;2023-03-23T13:25:38;4.28;;;1.92;;
44476;SDS011;30180;44.788;10.366;2023-03-23T13:28:15;12.23;;;2.10;;
44476;SDS011;30180;44.788;10.366;2023-03-23T13:30:59;6.55;;;1.85;;
44476;SDS011;30180;44.788;10.366;2023-03-23T13:33:29;8.38;;;2.30;;
44476;SDS011;30180;44.788;10.366;2023-03-23T13:36:02;10.13;;;2.53;;
44476;SDS011;30180;44.788;10.366;2023-03-23T13:38:33;9.55;;;2.40;;
44476;SDS011;30180;44.788;10.366;2023-03-23T13:41:06;7.22;;;2.22;;
44476;SDS011;30180;44.788;10.366;2023-03-23T13:43:37;6.35;;;2.03;;
44476;SDS011;30180;44.788;10.366;2023-03-23T13:46:10;18.63;;;2.53;;
44476;SDS011;30180;44.788;10.366;2023-03-23T13:48:50;12.60;;;2.70;;
44476;SDS011;30180;44.788;10.366;2023-03-23T13:51:34;7.32;;;2.40;;
44476;SDS011;30180;44.788;10.366;2023-03-23T13:54:19;7.93;;;2.45;;
44476;SDS011;30180;44.788;10.366;2023-03-23T13:56:53;10.00;;;2.42;;
44476;SDS011;30180;44.788;10.366;2023-03-23T13:59:31;5.63;;;1.95;;
44476;SDS011;30180;44.788;10.366;2023-03-23T14:07:59;5.88;;;1.98;;
44476;SDS011;30180;44.788;10.366;2023-03-23T14:10:33;8.20;;;2.03;;
44476;SDS011;30180;44.788;10.366;2023-03-23T14:13:03;8.40;;;2.15;;
44476;SDS011;30180;44.788;10.366;2023-03-23T14:15:37;11.10;;;2.70;;
44476;SDS011;30180;44.788;10.366;2023-03-23T14:18:12;9.07;;;2.92;;
44476;SDS011;30180;44.788;10.366;2023-03-23T14:20:41;13.98;;;3.47;;
44476;SDS011;30180;44.788;10.366;2023-03-23T14:23:14;8.45;;;2.78;;
44476;SDS011;30180;44.788;10.366;2023-03-23T14:28:17;9.45;;;3.17;;
44476;SDS011;30180;44.788;10.366;2023-03-23T14:30:48;8.55;;;3.17;;
44476;SDS011;30180;44.788;10.366;2023-03-23T14:33:20;8.23;;;3.00;;
44476;SDS011;30180;44.788;10.366;2023-03-23T14:35:47;6.15;;;2.50;;
44476;SDS011;30180;44.788;10.366;2023-03-23T14:38:15;9.82;;;2.47;;
44476;SDS011;30180;44.788;10.366;2023-03-23T14:40:46;11.38;;;2.78;;
44476;SDS011;30180;44.788;10.366;2023-03-23T14:43:15;11.30;;;3.15;;
44476;SDS011;30180;44.788;10.366;2023-03-23T14:45:45;12.82;;;2.75;;
44476;SDS011;30180;44.788;10.366;2023-03-23T14:48:17;7.20;;;2.28;;
44476;SDS011;30180;44.788;10.366;2023-03-23T14:50:48;13.07;;;3.67;;
44476;SDS011;30180;44.788;10.366;2023-03-23T14:53:21;9.13;;;2.80;;
44476;SDS011;30180;44.788;10.366;2023-03-23T14:55:50;12.80;;;2.88;;
44476;SDS011;30180;44.788;10.366;2023-03-23T14:58:20;9.45;;;2.33;;
44476;SDS011;30180;44.788;10.366;2023-03-23T15:00:52;6.80;;;2.53;;
44476;SDS011;30180;44.788;10.366;2023-03-23T15:03:23;9.30;;;2.80;;
44476;SDS011;30180;44.788;10.366;2023-03-23T15:05:52;7.05;;;2.33;;
44476;SDS011;30180;44.788;10.366;2023-03-23T15:08:23;11.65;;;2.63;;